San Francisco, CA

11:29 AM PDT on July 28, 2016 (GMT -0700)
Potrero Hill | | Change Station

Elev 20 ft 37.77 °N, 122.40 °W | Updated 2 seconds ago

Partly Cloudy
Partly Cloudy
63.7 °F
Feels Like 63.7 °F
N
12.8
Wind Variable Wind from WNW
Gusts 15.0 mph

Today
High -- | Low -- °F
--% Chance of Precip.
Yesterday
High -- | Low -- °F
Precip. -- in
Pressure 29.92 in
Visibility 10.0 miles
Clouds Few 18000 ft
Dew Point 53 °F
Humidity 68%
Rainfall 0.00 in
Snow Depth Not available.
6:10 AM 8:21 PM
Waning Crescent, 30% visible
METAR KOAK 281753Z 29007KT 10SM FEW180 19/13 A2992 RMK AO2 SLP132 T01940128 10194 20133 58003
Pressure 29.92 in
Visibility 10.0 miles
Clouds Few 18000 ft
Dew Point 53 °F
Humidity 68%
Rainfall 0.00 in
Snow Depth Not available.
6:10 AM 8:21 PM
Waning Crescent, 30% visible
METAR KOAK 281753Z 29007KT 10SM FEW180 19/13 A2992 RMK AO2 SLP132 T01940128 10194 20133 58003

10-Day Weather Forecast

Almanac

Astronomy

Jul. 28, 2016 Rise Set
Actual Time
Civil Twilight
Nautical Twilight
Astronomical Twilight
Moon
Length of Visible Light
Length of Day
Tomorrow will be .
, % of the Moon is Illuminated

Today's Extremes

State Highs State Lows

Community

WunderPhotos

Upload Photos

1,928,174 photos uploaded!

WunderBlog® & News

Nearby

Air Quality

  Air Quality AQ Index Pollutant
Not available.

Snow Depth

Station Depth Elevation

Earthquake Activity

City Distance Mag. Time & Date
Minimum magnitude displayed is 2.5.

Coastal Water Temperatures

Place Temperature

Stations

Nearby Weather Stations

Station Location Temp. Windchill Dew Point Humidity Wind Precip. Elev Updated Type
                   

Watches & Warnings

There are currently no watches in effect.